createdAt,value
2022-09-23T00:00:08.463Z,1017.35
2022-09-23T00:01:08.538Z,1017.37
2022-09-23T00:02:08.524Z,1017.32
2022-09-23T00:03:08.425Z,1017.35
2022-09-23T00:04:08.417Z,1017.32
2022-09-23T00:05:08.405Z,1017.33
2022-09-23T00:06:08.397Z,1017.33
2022-09-23T00:07:08.392Z,1017.31
2022-09-23T00:08:08.372Z,1017.34
2022-09-23T00:09:08.360Z,1017.29
2022-09-23T00:10:08.352Z,1017.24
2022-09-23T00:11:08.338Z,1017.20
2022-09-23T00:12:09.261Z,1017.23
2022-09-23T00:13:08.316Z,1017.18
2022-09-23T00:14:08.350Z,1017.16
2022-09-23T00:15:08.322Z,1017.16
2022-09-23T00:16:08.285Z,1017.16
2022-09-23T00:17:08.343Z,1017.18
2022-09-23T00:18:08.263Z,1017.16
2022-09-23T00:19:08.251Z,1017.12
2022-09-23T00:20:08.244Z,1017.13
2022-09-23T00:21:08.229Z,1017.13
2022-09-23T00:22:08.230Z,1017.11
2022-09-23T00:23:08.210Z,1017.07
2022-09-23T00:24:08.198Z,1017.06
2022-09-23T00:25:08.230Z,1017.05
2022-09-23T00:26:08.178Z,1017.10
2022-09-23T00:27:08.175Z,1017.09
2022-09-23T00:28:08.155Z,1017.05
2022-09-23T00:29:08.274Z,1017.02
2022-09-23T00:30:08.130Z,1017.02
2022-09-23T00:31:08.263Z,1017.01
2022-09-23T00:32:08.125Z,1016.98
2022-09-23T00:33:08.099Z,1016.98
2022-09-23T00:34:08.088Z,1016.96
2022-09-23T00:35:08.078Z,1016.96
2022-09-23T00:36:08.066Z,1016.97
2022-09-23T00:37:08.067Z,1016.97
2022-09-23T00:38:08.045Z,1016.97
2022-09-23T00:39:08.154Z,1016.98
2022-09-23T00:40:08.079Z,1016.92
2022-09-23T00:41:08.021Z,1016.95
2022-09-23T00:42:08.000Z,1016.93
2022-09-23T00:43:07.988Z,1016.91
2022-09-23T00:44:07.978Z,1016.92
2022-09-23T00:45:07.964Z,1016.92
2022-09-23T00:46:08.067Z,1016.90
2022-09-23T00:47:07.960Z,1016.90
2022-09-23T00:48:07.936Z,1016.92
2022-09-23T00:49:07.922Z,1016.97
2022-09-23T00:50:07.913Z,1016.93
2022-09-23T00:51:07.912Z,1016.96
2022-09-23T00:52:07.891Z,1016.95
2022-09-23T00:53:07.878Z,1016.94
2022-09-23T00:54:07.885Z,1016.94
2022-09-23T00:55:07.855Z,1016.89
2022-09-23T00:56:07.855Z,1016.93
2022-09-23T00:57:07.833Z,1016.94
2022-09-23T00:58:07.824Z,1016.89
2022-09-23T00:59:07.817Z,1016.90
2022-09-23T01:00:07.805Z,1016.86
2022-09-23T01:01:07.888Z,1016.85
2022-09-23T01:02:07.879Z,1016.80
2022-09-23T01:03:07.785Z,1016.81
2022-09-23T01:04:07.760Z,1016.80
2022-09-23T01:05:07.751Z,1016.84
2022-09-23T01:06:07.747Z,1016.84
2022-09-23T01:07:07.726Z,1016.81
2022-09-23T01:08:07.717Z,1016.79
2022-09-23T01:09:07.765Z,1016.78
2022-09-23T01:10:07.695Z,1016.76
2022-09-23T01:11:07.693Z,1016.76
2022-09-23T01:12:07.670Z,1016.76
2022-09-23T01:13:07.658Z,1016.77
2022-09-23T01:14:07.651Z,1016.74
2022-09-23T01:15:07.635Z,1016.74
2022-09-23T01:16:07.636Z,1016.72
2022-09-23T01:17:07.688Z,1016.70
2022-09-23T01:18:07.606Z,1016.72
2022-09-23T01:19:07.611Z,1016.73
2022-09-23T01:20:07.582Z,1016.70
2022-09-23T01:21:07.583Z,1016.64
2022-09-23T01:22:07.564Z,1016.70
2022-09-23T01:23:07.547Z,1016.65
2022-09-23T01:24:07.635Z,1016.65
2022-09-23T01:25:07.533Z,1016.72
2022-09-23T01:26:07.531Z,1016.68
2022-09-23T01:27:07.508Z,1016.67
2022-09-23T01:28:07.495Z,1016.66
2022-09-23T01:29:07.482Z,1016.68
2022-09-23T01:30:07.482Z,1016.68
2022-09-23T01:31:07.516Z,1016.70
2022-09-23T01:32:07.452Z,1016.64
2022-09-23T01:33:07.443Z,1016.64
2022-09-23T01:34:07.430Z,1016.63
2022-09-23T01:35:07.452Z,1016.63
2022-09-23T01:36:07.408Z,1016.62
2022-09-23T01:37:07.394Z,1016.61
2022-09-23T01:38:07.385Z,1016.66
2022-09-23T01:39:07.436Z,1016.62
2022-09-23T01:40:07.418Z,1016.61
2022-09-23T01:41:07.351Z,1016.62
2022-09-23T01:42:07.341Z,1016.60
2022-09-23T01:43:07.328Z,1016.64
2022-09-23T01:44:07.318Z,1016.64
2022-09-23T01:45:07.316Z,1016.64
2022-09-23T01:46:07.296Z,1016.61
2022-09-23T01:47:07.289Z,1016.61
2022-09-23T01:48:07.311Z,1016.58
2022-09-23T01:49:07.343Z,1016.58
2022-09-23T01:50:07.263Z,1016.57
2022-09-23T01:51:07.280Z,1016.56
2022-09-23T01:52:07.231Z,1016.49
2022-09-23T01:53:07.219Z,1016.56
2022-09-23T01:54:07.216Z,1016.54
2022-09-23T01:55:07.210Z,1016.55
2022-09-23T01:56:07.188Z,1016.53
2022-09-23T01:57:07.175Z,1016.52
2022-09-23T01:58:07.165Z,1016.54
2022-09-23T01:59:07.156Z,1016.58
2022-09-23T02:00:07.151Z,1016.53
2022-09-23T02:01:07.242Z,1016.54
2022-09-23T02:02:07.174Z,1016.52
2022-09-23T02:03:07.109Z,1016.53
2022-09-23T02:04:07.244Z,1016.51
2022-09-23T02:05:07.097Z,1016.52
2022-09-23T02:06:07.077Z,1016.52
2022-09-23T02:07:07.081Z,1016.51
2022-09-23T02:08:07.055Z,1016.51
2022-09-23T02:09:07.048Z,1016.50
2022-09-23T02:10:07.048Z,1016.49
2022-09-23T02:11:07.021Z,1016.47
2022-09-23T02:12:07.009Z,1016.44
2022-09-23T02:13:06.999Z,1016.46
2022-09-23T02:14:06.990Z,1016.42
2022-09-23T02:15:06.988Z,1016.42
2022-09-23T02:16:07.070Z,1016.42
2022-09-23T02:17:06.955Z,1016.43
2022-09-23T02:18:06.948Z,1016.39
2022-09-23T02:19:07.229Z,1016.37
2022-09-23T02:20:06.948Z,1016.38
2022-09-23T02:21:06.929Z,1016.36
2022-09-23T02:22:06.928Z,1016.37
2022-09-23T02:23:06.952Z,1016.32
2022-09-23T02:24:06.881Z,1016.32
2022-09-23T02:25:06.928Z,1016.31
2022-09-23T02:26:06.858Z,1016.25
2022-09-23T02:27:06.856Z,1016.24
2022-09-23T02:28:06.838Z,1016.24
2022-09-23T02:29:06.978Z,1016.22
2022-09-23T02:30:06.828Z,1016.16
2022-09-23T02:31:06.804Z,1016.21
2022-09-23T02:32:06.888Z,1016.17
2022-09-23T02:33:06.781Z,1016.19
2022-09-23T02:34:06.773Z,1016.17
2022-09-23T02:35:06.778Z,1016.15
2022-09-23T02:36:06.758Z,1016.20
2022-09-23T02:37:06.738Z,1016.19
2022-09-23T02:38:06.731Z,1016.19
2022-09-23T02:39:06.734Z,1016.21
2022-09-23T02:40:06.790Z,1016.17
2022-09-23T02:41:06.696Z,1016.17
2022-09-23T02:42:06.693Z,1016.13
2022-09-23T02:43:06.684Z,1016.13
2022-09-23T02:44:06.775Z,1016.13
2022-09-23T02:45:06.673Z,1016.09
2022-09-23T02:46:06.701Z,1016.09
2022-09-23T02:47:06.636Z,1016.09
2022-09-23T02:48:06.626Z,1016.06
2022-09-23T02:49:06.614Z,1016.08
2022-09-23T02:50:06.615Z,1016.08
2022-09-23T02:51:06.591Z,1016.07
2022-09-23T02:52:06.580Z,1016.06
2022-09-23T02:53:06.569Z,1016.03
2022-09-23T02:54:06.688Z,1016.02
2022-09-23T02:55:06.576Z,1015.99
2022-09-23T02:56:06.538Z,1016.02
2022-09-23T02:57:06.528Z,1015.99
2022-09-23T02:58:06.548Z,1015.99
2022-09-23T02:59:06.503Z,1015.96
2022-09-23T03:00:06.506Z,1015.98
2022-09-23T03:01:06.519Z,1015.94
2022-09-23T03:02:06.505Z,1015.94
2022-09-23T03:03:06.463Z,1015.93
2022-09-23T03:04:06.453Z,1015.93
2022-09-23T03:05:06.455Z,1015.89
2022-09-23T03:06:06.431Z,1015.94
2022-09-23T03:07:06.419Z,1015.93
2022-09-23T03:08:06.409Z,1015.90
2022-09-23T03:09:06.550Z,1015.93
2022-09-23T03:10:06.398Z,1015.94
2022-09-23T03:11:06.395Z,1015.91
2022-09-23T03:12:06.367Z,1015.91
2022-09-23T03:13:06.364Z,1015.88
2022-09-23T03:14:06.345Z,1015.88
2022-09-23T03:15:06.345Z,1015.87
2022-09-23T03:16:06.399Z,1015.87
2022-09-23T03:17:06.316Z,1015.88
2022-09-23T03:18:06.303Z,1015.84
2022-09-23T03:19:06.294Z,1015.83
2022-09-23T03:20:06.295Z,1015.82
2022-09-23T03:21:06.275Z,1015.77
2022-09-23T03:22:06.260Z,1015.82
2022-09-23T03:23:06.253Z,1015.82
2022-09-23T03:24:06.459Z,1015.78
2022-09-23T03:25:06.241Z,1015.78
2022-09-23T03:26:06.217Z,1015.76
2022-09-23T03:27:06.227Z,1015.74
2022-09-23T03:28:06.195Z,1015.77
2022-09-23T03:29:06.186Z,1015.73
2022-09-23T03:30:06.187Z,1015.68
2022-09-23T03:31:06.168Z,1015.77
2022-09-23T03:32:06.185Z,1015.72
2022-09-23T03:33:06.168Z,1015.69
2022-09-23T03:34:06.133Z,1015.62
2022-09-23T03:35:06.132Z,1015.69
2022-09-23T03:36:06.109Z,1015.66
2022-09-23T03:37:06.101Z,1015.64
2022-09-23T03:38:06.089Z,1015.64
2022-09-23T03:39:06.169Z,1015.63
2022-09-23T03:40:06.107Z,1015.67
2022-09-23T03:41:06.058Z,1015.67
2022-09-23T03:42:06.048Z,1015.67
2022-09-23T03:43:06.052Z,1015.62
2022-09-23T03:44:06.024Z,1015.68
2022-09-23T03:45:06.023Z,1015.58
2022-09-23T03:46:06.099Z,1015.63
2022-09-23T03:47:05.994Z,1015.61
2022-09-23T03:48:05.980Z,1015.61
2022-09-23T03:49:05.973Z,1015.63
2022-09-23T03:50:05.974Z,1015.62
2022-09-23T03:51:05.951Z,1015.64
2022-09-23T03:52:05.941Z,1015.66
2022-09-23T03:53:05.953Z,1015.62
2022-09-23T03:54:05.960Z,1015.60
2022-09-23T03:55:05.924Z,1015.58
2022-09-23T03:56:05.895Z,1015.59
2022-09-23T03:57:05.886Z,1015.58
2022-09-23T03:58:05.873Z,1015.57
2022-09-23T03:59:05.887Z,1015.57
2022-09-23T04:00:05.863Z,1015.58
2022-09-23T04:01:05.957Z,1015.55
2022-09-23T04:02:05.869Z,1015.55
2022-09-23T04:03:10.918Z,1015.55
2022-09-23T04:04:06.942Z,1015.55
2022-09-23T04:05:05.814Z,1015.55
2022-09-23T04:06:05.790Z,1015.54
2022-09-23T04:07:05.779Z,1015.53
2022-09-23T04:08:07.815Z,1015.53
2022-09-23T04:09:05.756Z,1015.51
2022-09-23T04:10:05.758Z,1015.50
2022-09-23T04:11:05.736Z,1015.49
2022-09-23T04:12:05.725Z,1015.44
2022-09-23T04:13:05.722Z,1015.42
2022-09-23T04:14:05.707Z,1015.41
2022-09-23T04:15:05.724Z,1015.39
2022-09-23T04:16:05.745Z,1015.42
2022-09-23T04:17:05.681Z,1015.38
2022-09-23T04:18:05.661Z,1015.38
2022-09-23T04:19:09.656Z,1015.36
2022-09-23T04:20:06.638Z,1015.36
2022-09-23T04:21:05.630Z,1015.38
2022-09-23T04:22:05.700Z,1015.38
2022-09-23T04:23:05.612Z,1015.34
2022-09-23T04:24:05.607Z,1015.38
2022-09-23T04:25:05.624Z,1015.35
2022-09-23T04:26:05.573Z,1015.31
2022-09-23T04:27:05.566Z,1015.34
2022-09-23T04:28:05.552Z,1015.30
2022-09-23T04:29:05.651Z,1015.32
2022-09-23T04:30:05.548Z,1015.33
2022-09-23T04:31:05.597Z,1015.35
2022-09-23T04:32:05.527Z,1015.35
2022-09-23T04:33:05.502Z,1015.39
2022-09-23T04:34:05.499Z,1015.33
2022-09-23T04:35:05.481Z,1015.37
2022-09-23T04:36:05.466Z,1015.38
2022-09-23T04:37:05.457Z,1015.39
2022-09-23T04:38:05.446Z,1015.40
2022-09-23T04:39:05.603Z,1015.41
2022-09-23T04:40:05.456Z,1015.35
2022-09-23T04:41:05.418Z,1015.35
2022-09-23T04:42:05.404Z,1015.36
2022-09-23T04:43:05.395Z,1015.40
2022-09-23T04:44:05.423Z,1015.36
2022-09-23T04:45:05.375Z,1015.37
2022-09-23T04:46:05.359Z,1015.35
2022-09-23T04:47:05.409Z,1015.34
2022-09-23T04:48:05.341Z,1015.35
2022-09-23T04:49:05.407Z,1015.32
2022-09-23T04:50:05.317Z,1015.32
2022-09-23T04:51:05.309Z,1015.32
2022-09-23T04:52:05.358Z,1015.32
2022-09-23T04:53:05.287Z,1015.34
2022-09-23T04:54:05.288Z,1015.34
2022-09-23T04:55:09.123Z,1015.31
2022-09-23T04:56:06.252Z,1015.36
2022-09-23T04:57:05.243Z,1015.33
2022-09-23T04:58:05.232Z,1015.36
2022-09-23T04:59:05.244Z,1015.33
2022-09-23T05:00:05.212Z,1015.34
2022-09-23T05:01:05.545Z,1015.35
2022-09-23T05:02:05.354Z,1015.35
2022-09-23T05:03:05.242Z,1015.35
2022-09-23T05:04:05.211Z,1015.33
2022-09-23T05:05:05.170Z,1015.31
2022-09-23T05:06:05.145Z,1015.28
2022-09-23T05:07:05.155Z,1015.33
2022-09-23T05:08:05.156Z,1015.29
2022-09-23T05:09:05.131Z,1015.33
2022-09-23T05:10:05.102Z,1015.34
2022-09-23T05:11:05.092Z,1015.26
2022-09-23T05:12:05.081Z,1015.29
2022-09-23T05:13:05.074Z,1015.28
2022-09-23T05:14:05.068Z,1015.29
2022-09-23T05:15:05.081Z,1015.32
2022-09-23T05:16:05.122Z,1015.30
2022-09-23T05:17:05.030Z,1015.28
2022-09-23T05:18:05.019Z,1015.29
2022-09-23T05:19:05.035Z,1015.27
2022-09-23T05:20:04.995Z,1015.27
2022-09-23T05:21:04.987Z,1015.27
2022-09-23T05:22:04.971Z,1015.28
2022-09-23T05:23:04.982Z,1015.25
2022-09-23T05:24:04.984Z,1015.26
2022-09-23T05:25:04.942Z,1015.27
2022-09-23T05:26:04.928Z,1015.28
2022-09-23T05:27:04.920Z,1015.26
2022-09-23T05:28:04.907Z,1015.30
2022-09-23T05:29:04.907Z,1015.26
2022-09-23T05:30:04.886Z,1015.27
2022-09-23T05:31:04.963Z,1015.27
2022-09-23T05:32:04.923Z,1015.27
2022-09-23T05:33:04.855Z,1015.26
2022-09-23T05:34:04.891Z,1015.26
2022-09-23T05:35:04.852Z,1015.31
2022-09-23T05:36:04.822Z,1015.26
2022-09-23T05:37:04.814Z,1015.27
2022-09-23T05:38:04.802Z,1015.25
2022-09-23T05:39:04.813Z,1015.25
2022-09-23T05:40:04.844Z,1015.23
2022-09-23T05:41:04.771Z,1015.20
2022-09-23T05:42:04.758Z,1015.17
2022-09-23T05:43:04.750Z,1015.21
2022-09-23T05:44:04.763Z,1015.22
2022-09-23T05:45:04.727Z,1015.23
2022-09-23T05:46:07.974Z,1015.20
2022-09-23T05:47:04.781Z,1015.18
2022-09-23T05:48:04.694Z,1015.23
2022-09-23T05:49:04.762Z,1015.27
2022-09-23T05:50:04.673Z,1015.27
2022-09-23T05:51:04.680Z,1015.27
2022-09-23T05:52:04.652Z,1015.30
2022-09-23T05:53:04.643Z,1015.30
2022-09-23T05:54:04.670Z,1015.26
2022-09-23T05:55:04.620Z,1015.27
2022-09-23T05:57:05.142Z,1015.26
2022-09-23T05:58:04.586Z,1015.27
2022-09-23T05:59:04.589Z,1015.17
2022-09-23T06:00:04.565Z,1015.19
2022-09-23T06:01:04.555Z,1015.16
2022-09-23T06:02:04.558Z,1015.23
2022-09-23T06:03:04.573Z,1015.29
2022-09-23T06:04:04.528Z,1015.26
2022-09-23T06:05:04.530Z,1015.25
2022-09-23T06:06:04.501Z,1015.25
2022-09-23T06:07:04.507Z,1015.26
2022-09-23T06:08:04.476Z,1015.27
2022-09-23T06:09:04.484Z,1015.25
2022-09-23T06:10:04.455Z,1015.30
2022-09-23T06:11:04.449Z,1015.28
2022-09-23T06:12:04.445Z,1015.27
2022-09-23T06:13:07.235Z,1015.23
2022-09-23T06:14:04.579Z,1015.28
2022-09-23T06:15:04.422Z,1015.25
2022-09-23T06:16:04.426Z,1015.23
2022-09-23T06:17:04.387Z,1015.27
2022-09-23T06:18:05.171Z,1015.22
2022-09-23T06:19:05.656Z,1015.26
2022-09-23T06:20:04.369Z,1015.21
2022-09-23T06:21:04.363Z,1015.25
2022-09-23T06:22:04.391Z,1015.27
2022-09-23T06:23:08.490Z,1015.29
2022-09-23T06:24:05.429Z,1015.28
2022-09-23T06:25:04.322Z,1015.29
2022-09-23T06:26:04.293Z,1015.27
2022-09-23T06:27:04.274Z,1015.27
2022-09-23T06:28:04.261Z,1015.27
2022-09-23T06:29:04.268Z,1015.22
2022-09-23T06:30:04.240Z,1015.22
2022-09-23T06:31:04.293Z,1015.29
2022-09-23T06:32:04.218Z,1015.27
2022-09-23T06:33:04.207Z,1015.28
2022-09-23T06:34:11.920Z,1015.24
2022-09-23T06:35:05.188Z,1015.26
2022-09-23T06:36:04.179Z,1015.27
2022-09-23T06:37:15.485Z,1015.24
2022-09-23T06:38:05.186Z,1015.27
2022-09-23T06:39:04.176Z,1015.28
2022-09-23T06:40:04.215Z,1015.28
2022-09-23T06:41:04.120Z,1015.33
2022-09-23T06:42:04.106Z,1015.33
2022-09-23T06:43:04.098Z,1015.33
2022-09-23T06:44:04.111Z,1015.33
2022-09-23T06:45:04.077Z,1015.30
2022-09-23T06:46:04.281Z,1015.27
2022-09-23T06:47:04.080Z,1015.31
2022-09-23T06:48:04.118Z,1015.31
2022-09-23T06:49:04.101Z,1015.32
2022-09-23T06:50:04.033Z,1015.30
2022-09-23T06:51:04.020Z,1015.23
2022-09-23T06:52:04.002Z,1015.30
2022-09-23T06:53:03.989Z,1015.28
2022-09-23T06:54:04.040Z,1015.32
2022-09-23T06:55:04.081Z,1015.29
2022-09-23T06:56:03.959Z,1015.30
2022-09-23T06:57:03.954Z,1015.32
2022-09-23T06:58:03.937Z,1015.32
2022-09-23T06:59:03.936Z,1015.31
2022-09-23T07:00:03.916Z,1015.34
2022-09-23T07:01:03.905Z,1015.32
2022-09-23T07:02:04.042Z,1015.29
2022-09-23T07:03:03.973Z,1015.32
2022-09-23T07:04:03.894Z,1015.34
2022-09-23T07:05:03.881Z,1015.36
2022-09-23T07:06:03.858Z,1015.36
2022-09-23T07:07:03.848Z,1015.34
2022-09-23T07:08:03.836Z,1015.38
2022-09-23T07:09:03.819Z,1015.34
2022-09-23T07:10:03.819Z,1015.33
2022-09-23T07:11:03.813Z,1015.38
2022-09-23T07:12:03.784Z,1015.34
2022-09-23T07:13:03.776Z,1015.38
2022-09-23T07:14:03.773Z,1015.36
2022-09-23T07:15:03.756Z,1015.31
2022-09-23T07:16:03.773Z,1015.38
2022-09-23T07:17:03.733Z,1015.39
2022-09-23T07:18:03.730Z,1015.40
2022-09-23T07:19:03.723Z,1015.34
2022-09-23T07:20:03.702Z,1015.35
2022-09-23T07:21:03.707Z,1015.36
2022-09-23T07:22:03.679Z,1015.38
2022-09-23T07:23:03.670Z,1015.43
2022-09-23T07:24:03.716Z,1015.42
2022-09-23T07:25:03.649Z,1015.42
2022-09-23T07:26:03.633Z,1015.42
2022-09-23T07:27:03.642Z,1015.38
2022-09-23T07:28:03.620Z,1015.39
2022-09-23T07:29:03.614Z,1015.39
2022-09-23T07:30:03.633Z,1015.41
2022-09-23T07:31:03.615Z,1015.45
2022-09-23T07:32:13.382Z,1015.44
2022-09-23T07:33:13.454Z,1015.47
2022-09-23T07:34:04.653Z,1015.46
2022-09-23T07:35:03.571Z,1015.40
2022-09-23T07:36:03.531Z,1015.42
2022-09-23T07:37:03.583Z,1015.45
2022-09-23T07:38:03.513Z,1015.42
2022-09-23T07:39:03.559Z,1015.42
2022-09-23T07:40:03.605Z,1015.36
2022-09-23T07:41:03.484Z,1015.36
2022-09-23T07:42:03.468Z,1015.37
2022-09-23T07:43:03.481Z,1015.36
2022-09-23T07:44:03.462Z,1015.39
2022-09-23T07:45:03.434Z,1015.42
2022-09-23T07:46:03.560Z,1015.35
2022-09-23T07:47:03.428Z,1015.37
2022-09-23T07:48:03.404Z,1015.41
2022-09-23T07:49:03.409Z,1015.39
2022-09-23T07:50:03.505Z,1015.37
2022-09-23T07:51:03.371Z,1015.39
2022-09-23T07:52:03.364Z,1015.37
2022-09-23T07:53:03.351Z,1015.44
2022-09-23T07:54:03.357Z,1015.41
2022-09-23T07:55:03.396Z,1015.43
2022-09-23T07:56:03.326Z,1015.48
2022-09-23T07:57:03.330Z,1015.46
2022-09-23T07:58:03.349Z,1015.46
2022-09-23T07:59:03.434Z,1015.44
2022-09-23T08:00:03.282Z,1015.44
2022-09-23T08:01:03.271Z,1015.46
2022-09-23T08:02:03.360Z,1015.48
2022-09-23T08:03:03.322Z,1015.41
2022-09-23T08:04:03.255Z,1015.46
2022-09-23T08:05:03.229Z,1015.43
2022-09-23T08:06:03.224Z,1015.39
2022-09-23T08:07:03.213Z,1015.42
2022-09-23T08:08:03.213Z,1015.39
2022-09-23T08:09:03.304Z,1015.38
2022-09-23T08:10:03.179Z,1015.39
2022-09-23T08:11:03.177Z,1015.39
2022-09-23T08:12:03.161Z,1015.36
2022-09-23T08:13:03.168Z,1015.37
2022-09-23T08:14:03.151Z,1015.36
2022-09-23T08:15:03.145Z,1015.38
2022-09-23T08:16:03.210Z,1015.36
2022-09-23T08:17:03.107Z,1015.37
2022-09-23T08:18:03.127Z,1015.38
2022-09-23T08:19:03.164Z,1015.38
2022-09-23T08:20:03.077Z,1015.32
2022-09-23T08:21:03.083Z,1015.33
2022-09-23T08:22:03.056Z,1015.38
2022-09-23T08:23:03.043Z,1015.31
2022-09-23T08:24:03.106Z,1015.39
2022-09-23T08:25:03.094Z,1015.34
2022-09-23T08:26:03.024Z,1015.36
2022-09-23T08:27:03.039Z,1015.36
2022-09-23T08:28:03.023Z,1015.31
2022-09-23T08:29:02.998Z,1015.34
2022-09-23T08:30:02.976Z,1015.31
2022-09-23T08:31:03.060Z,1015.31
2022-09-23T08:32:02.976Z,1015.31
2022-09-23T08:33:02.944Z,1015.31
2022-09-23T08:34:03.069Z,1015.36
2022-09-23T08:35:02.921Z,1015.33
2022-09-23T08:36:02.911Z,1015.35
2022-09-23T08:37:02.902Z,1015.31
2022-09-23T08:38:02.939Z,1015.28
2022-09-23T08:39:02.915Z,1015.23
2022-09-23T08:40:02.874Z,1015.26
2022-09-23T08:41:02.864Z,1015.28
2022-09-23T08:42:02.850Z,1015.24
2022-09-23T08:43:02.841Z,1015.24
2022-09-23T08:44:02.894Z,1015.24
2022-09-23T08:45:02.819Z,1015.25
2022-09-23T08:46:02.876Z,1015.19
2022-09-23T08:47:02.815Z,1015.18
2022-09-23T08:48:02.793Z,1015.23
2022-09-23T08:49:02.788Z,1015.18
2022-09-23T08:50:02.790Z,1015.13
2022-09-23T08:51:02.756Z,1015.15
2022-09-23T08:52:02.749Z,1015.12
2022-09-23T08:53:02.740Z,1015.12
2022-09-23T08:54:02.902Z,1015.10
2022-09-23T08:55:02.724Z,1015.14
2022-09-23T08:56:02.704Z,1015.14
2022-09-23T08:57:02.693Z,1015.09
2022-09-23T08:58:23.808Z,1015.12
2022-09-23T08:59:03.680Z,1015.09
2022-09-23T09:00:02.666Z,1015.10
2022-09-23T09:01:02.737Z,1015.05
2022-09-23T09:02:02.646Z,1015.12
2022-09-23T09:03:02.696Z,1015.10
2022-09-23T09:04:02.719Z,1015.06
2022-09-23T09:05:02.618Z,1015.10
2022-09-23T09:06:02.603Z,1015.08
2022-09-23T09:07:24.569Z,1015.08
2022-09-23T09:08:03.599Z,1015.00
2022-09-23T09:09:02.673Z,1015.06
2022-09-23T09:10:02.560Z,1015.07
2022-09-23T09:11:02.547Z,1015.08
2022-09-23T09:12:02.541Z,1015.11
2022-09-23T09:13:02.530Z,1015.14
2022-09-23T09:14:02.531Z,1015.09
2022-09-23T09:15:02.567Z,1015.10
2022-09-23T09:16:02.672Z,1015.13
2022-09-23T09:17:02.607Z,1015.11
2022-09-23T09:18:02.478Z,1015.05
2022-09-23T09:19:02.542Z,1015.10
2022-09-23T09:20:02.455Z,1015.11
2022-09-23T09:21:02.447Z,1015.12
2022-09-23T09:22:02.453Z,1015.13
2022-09-23T09:23:02.423Z,1015.13
2022-09-23T09:24:02.547Z,1015.10
2022-09-23T09:25:02.404Z,1015.10
2022-09-23T09:26:02.397Z,1015.15
2022-09-23T09:27:02.385Z,1015.12
2022-09-23T09:28:02.376Z,1015.14
2022-09-23T09:29:17.247Z,1015.10
2022-09-23T09:30:03.354Z,1015.10
2022-09-23T09:31:02.368Z,1015.11
2022-09-23T09:32:02.335Z,1015.09
2022-09-23T09:33:02.323Z,1015.10
2022-09-23T09:34:02.335Z,1015.10
2022-09-23T09:35:02.339Z,1015.09
2022-09-23T09:36:02.295Z,1015.05
2022-09-23T09:37:06.811Z,1015.02
2022-09-23T09:38:03.273Z,1015.02
2022-09-23T09:39:02.313Z,1015.03
2022-09-23T09:40:02.256Z,1015.00
2022-09-23T09:41:02.240Z,1014.99
2022-09-23T09:42:02.235Z,1014.96
2022-09-23T09:43:02.223Z,1014.91
2022-09-23T09:44:02.278Z,1014.93
2022-09-23T09:45:02.199Z,1014.91
2022-09-23T09:46:02.191Z,1014.84
2022-09-23T09:47:02.297Z,1014.85
2022-09-23T09:48:02.211Z,1014.84
2022-09-23T09:49:02.261Z,1014.82
2022-09-23T09:50:02.161Z,1014.81
2022-09-23T09:51:02.155Z,1014.81
2022-09-23T09:52:02.130Z,1014.76
2022-09-23T09:53:02.065Z,1014.75
2022-09-23T09:54:02.074Z,1014.78
2022-09-23T09:55:02.108Z,1014.76
2022-09-23T09:56:05.005Z,1014.74
2022-09-23T09:57:02.023Z,1014.67
2022-09-23T09:58:02.140Z,1014.69
2022-09-23T09:59:02.140Z,1014.66
2022-09-23T10:00:01.994Z,1014.66
2022-09-23T10:01:02.087Z,1014.65
2022-09-23T10:02:01.972Z,1014.66
2022-09-23T10:03:01.985Z,1014.68
2022-09-23T10:04:01.984Z,1014.63
2022-09-23T10:05:01.940Z,1014.64
2022-09-23T10:06:01.935Z,1014.61
2022-09-23T10:07:01.959Z,1014.54
2022-09-23T10:08:01.918Z,1014.56
2022-09-23T10:09:01.991Z,1014.56
2022-09-23T10:10:15.699Z,1014.58
2022-09-23T10:11:02.883Z,1014.61
2022-09-23T10:12:01.871Z,1014.60
2022-09-23T10:13:01.863Z,1014.58
2022-09-23T10:14:01.879Z,1014.66
2022-09-23T10:15:01.838Z,1014.59
2022-09-23T10:16:01.832Z,1014.62
2022-09-23T10:17:01.838Z,1014.53
2022-09-23T10:18:01.810Z,1014.51
2022-09-23T10:19:01.969Z,1014.53
2022-09-23T10:20:01.791Z,1014.56
2022-09-23T10:21:01.779Z,1014.53
2022-09-23T10:22:01.769Z,1014.55
2022-09-23T10:23:01.775Z,1014.52
2022-09-23T10:24:01.776Z,1014.48
2022-09-23T10:25:01.736Z,1014.54
2022-09-23T10:26:01.729Z,1014.50
2022-09-23T10:27:01.738Z,1014.51
2022-09-23T10:28:04.787Z,1014.49
2022-09-23T10:29:02.796Z,1014.47
2022-09-23T10:30:01.687Z,1014.42
2022-09-23T10:31:01.724Z,1014.38
2022-09-23T10:32:01.673Z,1014.33
2022-09-23T10:33:01.656Z,1014.36
2022-09-23T10:34:01.669Z,1014.29
2022-09-23T10:35:01.811Z,1014.37
2022-09-23T10:36:01.629Z,1014.37
2022-09-23T10:37:01.615Z,1014.32
2022-09-23T10:38:01.607Z,1014.38
2022-09-23T10:39:01.775Z,1014.34
2022-09-23T10:40:01.587Z,1014.31
2022-09-23T10:41:01.745Z,1014.28
2022-09-23T10:42:01.575Z,1014.29
2022-09-23T10:43:01.569Z,1014.32
2022-09-23T10:44:01.548Z,1014.32
2022-09-23T10:45:01.578Z,1014.32
2022-09-23T10:46:01.627Z,1014.26
2022-09-23T10:47:01.526Z,1014.32
2022-09-23T10:48:01.528Z,1014.31
2022-09-23T10:49:01.503Z,1014.24
2022-09-23T10:50:01.489Z,1014.26
2022-09-23T10:51:01.479Z,1014.29
2022-09-23T10:52:01.468Z,1014.31
2022-09-23T10:53:01.467Z,1014.31
2022-09-23T10:54:01.447Z,1014.29
2022-09-23T10:55:01.466Z,1014.26
2022-09-23T10:56:01.436Z,1014.25
2022-09-23T10:57:01.412Z,1014.25
2022-09-23T10:58:01.419Z,1014.22
2022-09-23T10:59:01.393Z,1014.21
2022-09-23T11:00:01.386Z,1014.21
2022-09-23T11:01:01.449Z,1014.23
2022-09-23T11:02:01.362Z,1014.23
2022-09-23T11:03:01.360Z,1014.25
2022-09-23T11:04:01.581Z,1014.19
2022-09-23T11:05:01.401Z,1014.22
2022-09-23T11:06:01.322Z,1014.22
2022-09-23T11:07:01.314Z,1014.17
2022-09-23T11:08:01.310Z,1014.14
2022-09-23T11:09:01.289Z,1014.11
2022-09-23T11:10:01.281Z,1014.09
2022-09-23T11:11:01.299Z,1014.14
2022-09-23T11:12:01.259Z,1014.10
2022-09-23T11:13:01.260Z,1014.07
2022-09-23T11:14:01.238Z,1014.06
2022-09-23T11:15:01.233Z,1014.02
2022-09-23T11:16:01.221Z,1013.99
2022-09-23T11:17:01.347Z,1013.96
2022-09-23T11:18:01.219Z,1013.94
2022-09-23T11:19:01.215Z,1013.96
2022-09-23T11:20:01.184Z,1013.94
2022-09-23T11:21:01.168Z,1014.00
2022-09-23T11:22:01.164Z,1013.97
2022-09-23T11:23:01.162Z,1013.95
2022-09-23T11:24:01.215Z,1013.95
2022-09-23T11:25:01.125Z,1013.96
2022-09-23T11:26:01.121Z,1013.92
2022-09-23T11:27:01.143Z,1013.84
2022-09-23T11:28:01.118Z,1013.81
2022-09-23T11:29:01.085Z,1013.78
2022-09-23T11:30:01.078Z,1013.79
2022-09-23T11:31:01.185Z,1013.76
2022-09-23T11:32:01.054Z,1013.77
2022-09-23T11:33:01.143Z,1013.71
2022-09-23T11:34:01.048Z,1013.73
2022-09-23T11:35:01.033Z,1013.73
2022-09-23T11:36:01.015Z,1013.75
2022-09-23T11:37:01.003Z,1013.74
2022-09-23T11:38:01.018Z,1013.70
2022-09-23T11:39:00.980Z,1013.69
2022-09-23T11:40:00.974Z,1013.64
2022-09-23T11:41:01.074Z,1013.68
2022-09-23T11:42:00.952Z,1013.64
2022-09-23T11:43:00.979Z,1013.61
2022-09-23T11:44:00.957Z,1013.59
2022-09-23T11:45:00.926Z,1013.56
2022-09-23T11:46:00.941Z,1013.56
2022-09-23T11:47:00.899Z,1013.56
2022-09-23T11:48:00.899Z,1013.53
2022-09-23T11:49:00.881Z,1013.52
2022-09-23T11:50:00.877Z,1013.56
2022-09-23T11:51:00.864Z,1013.57
2022-09-23T11:52:00.848Z,1013.52
2022-09-23T11:53:00.846Z,1013.49
2022-09-23T11:54:00.908Z,1013.47
2022-09-23T11:55:03.068Z,1013.53
2022-09-23T11:56:00.805Z,1013.50
2022-09-23T11:57:00.796Z,1013.47
2022-09-23T11:58:00.792Z,1013.43
2022-09-23T11:59:00.903Z,1013.45
2022-09-23T12:00:00.765Z,1013.44
2022-09-23T12:01:01.379Z,1013.40
2022-09-23T12:02:10.932Z,1013.42
2022-09-23T12:03:06.142Z,1013.35
2022-09-23T12:04:10.528Z,1013.32
2022-09-23T12:05:01.958Z,1013.34
2022-09-23T12:06:00.815Z,1013.32